createdAt,value
2022-08-17T00:02:26.467Z,30.50
2022-08-17T00:04:55.482Z,26.05
2022-08-17T00:07:23.363Z,28.58
2022-08-17T00:09:50.786Z,32.40
2022-08-17T00:12:41.605Z,27.52
2022-08-17T00:15:10.647Z,24.98
2022-08-17T00:17:38.630Z,27.83
2022-08-17T00:20:07.209Z,26.08
2022-08-17T00:22:36.756Z,31.80
2022-08-17T00:25:08.784Z,29.92
2022-08-17T00:27:37.072Z,29.13
2022-08-17T00:30:10.129Z,31.05
2022-08-17T00:33:12.286Z,28.63
2022-08-17T00:35:34.335Z,30.30
2022-08-17T00:38:04.322Z,29.13
2022-08-17T00:40:40.611Z,34.78
2022-08-17T00:43:20.654Z,34.10
2022-08-17T00:45:49.053Z,33.78
2022-08-17T00:48:28.845Z,31.55
2022-08-17T00:51:17.562Z,36.03
2022-08-17T00:53:51.472Z,30.42
2022-08-17T00:56:24.801Z,32.75
2022-08-17T00:58:53.043Z,33.08
2022-08-17T01:01:21.513Z,29.75
2022-08-17T01:03:52.135Z,40.80
2022-08-17T01:06:20.495Z,41.30
2022-08-17T01:08:52.289Z,39.40
2022-08-17T01:11:26.587Z,32.58
2022-08-17T01:13:54.083Z,37.90
2022-08-17T01:16:40.099Z,34.55
2022-08-17T01:19:32.315Z,35.80
2022-08-17T01:22:11.358Z,36.65
2022-08-17T01:24:42.200Z,44.13
2022-08-17T01:27:10.809Z,45.15
2022-08-17T01:29:40.505Z,41.35
2022-08-17T01:32:08.871Z,39.35
2022-08-17T01:34:42.472Z,42.58
2022-08-17T01:37:12.753Z,45.20
2022-08-17T01:39:50.330Z,44.33
2022-08-17T01:42:37.431Z,46.75
2022-08-17T01:45:23.165Z,46.65
2022-08-17T01:47:51.731Z,44.72
2022-08-17T01:50:26.482Z,45.47
2022-08-17T01:52:57.723Z,44.80
2022-08-17T01:55:31.475Z,42.25
2022-08-17T01:57:59.549Z,50.17
2022-08-17T02:00:59.641Z,44.47
2022-08-17T02:03:21.979Z,49.35
2022-08-17T02:05:50.063Z,46.85
2022-08-17T02:08:19.926Z,44.50
2022-08-17T02:10:49.129Z,39.17
2022-08-17T02:13:17.154Z,48.92
2022-08-17T02:15:44.555Z,55.08
2022-08-17T02:18:14.906Z,54.67
2022-08-17T02:20:43.033Z,55.45
2022-08-17T02:23:12.040Z,47.60
2022-08-17T02:25:40.709Z,46.00
2022-08-17T02:28:08.252Z,44.65
2022-08-17T02:31:00.039Z,46.58
2022-08-17T02:33:23.681Z,40.50
2022-08-17T02:36:10.416Z,41.08
2022-08-17T02:38:38.575Z,46.53
2022-08-17T02:41:06.336Z,39.35
2022-08-17T02:43:33.859Z,44.35
2022-08-17T02:46:01.611Z,46.28
2022-08-17T02:48:31.139Z,44.33
2022-08-17T02:51:00.442Z,40.88
2022-08-17T02:53:29.765Z,48.20
2022-08-17T02:56:04.165Z,42.40
2022-08-17T02:58:35.430Z,43.58
2022-08-17T03:01:05.922Z,43.67
2022-08-17T03:03:34.048Z,42.83
2022-08-17T03:06:01.855Z,42.72
2022-08-17T03:08:29.839Z,38.55
2022-08-17T03:10:57.907Z,40.72
2022-08-17T03:13:27.738Z,42.15
2022-08-17T03:15:55.322Z,36.95
2022-08-17T03:18:24.638Z,37.25
2022-08-17T03:20:55.532Z,37.55
2022-08-17T03:23:23.958Z,38.40
2022-08-17T03:25:53.821Z,40.95
2022-08-17T03:28:22.727Z,41.08
2022-08-17T03:30:51.507Z,41.80
2022-08-17T03:33:20.185Z,42.30
2022-08-17T03:35:47.843Z,49.22
2022-08-17T03:38:17.332Z,50.85
2022-08-17T03:40:59.010Z,46.40
2022-08-17T03:43:32.088Z,54.28
2022-08-17T03:46:34.003Z,48.53
2022-08-17T03:49:26.049Z,47.10
2022-08-17T03:52:14.035Z,45.25
2022-08-17T03:55:00.883Z,44.55
2022-08-17T03:57:28.858Z,45.58
2022-08-17T03:59:56.360Z,43.17
2022-08-17T04:02:26.430Z,46.95
2022-08-17T04:04:54.625Z,50.80
2022-08-17T04:07:24.082Z,47.65
2022-08-17T04:09:51.785Z,49.60
2022-08-17T04:12:23.324Z,45.40
2022-08-17T04:14:53.401Z,45.45
2022-08-17T04:17:24.452Z,41.10
2022-08-17T04:19:52.168Z,37.55
2022-08-17T04:22:31.291Z,39.15
2022-08-17T04:25:14.862Z,42.42
2022-08-17T04:27:42.413Z,39.13
2022-08-17T04:30:10.593Z,41.22
2022-08-17T04:33:07.268Z,40.53
2022-08-17T04:35:41.258Z,43.45
2022-08-17T04:38:10.109Z,42.08
2022-08-17T04:40:56.643Z,39.40
2022-08-17T04:43:26.051Z,37.08
2022-08-17T04:45:57.365Z,34.90
2022-08-17T04:48:36.981Z,35.28
2022-08-17T04:51:13.411Z,34.42
2022-08-17T04:53:44.599Z,33.92
2022-08-17T04:56:17.029Z,28.40
2022-08-17T04:58:48.444Z,32.92
2022-08-17T05:01:23.599Z,35.07
2022-08-17T05:03:56.346Z,28.98
2022-08-17T05:06:24.130Z,32.25
2022-08-17T05:08:51.976Z,29.05
2022-08-17T05:11:19.431Z,28.60
2022-08-17T05:13:50.400Z,30.98
2022-08-17T05:16:19.059Z,30.65
2022-08-17T05:18:46.788Z,26.27
2022-08-17T05:21:15.032Z,26.10
2022-08-17T05:23:43.515Z,28.85
2022-08-17T05:26:26.495Z,32.83
2022-08-17T05:28:59.425Z,32.63
2022-08-17T05:31:28.439Z,29.13
2022-08-17T05:33:56.240Z,27.70
2022-08-17T05:36:43.660Z,29.95
2022-08-17T05:39:16.522Z,28.35
2022-08-17T05:41:46.872Z,25.80
2022-08-17T05:44:14.864Z,25.15
2022-08-17T05:46:44.358Z,23.63
2022-08-17T05:49:13.252Z,22.95
2022-08-17T05:51:56.121Z,21.38
2022-08-17T05:54:33.977Z,22.15
2022-08-17T05:57:29.180Z,24.90
2022-08-17T06:00:09.928Z,34.33
2022-08-17T06:03:02.339Z,23.00
2022-08-17T06:05:55.400Z,28.33
2022-08-17T06:08:41.350Z,22.55
2022-08-17T06:11:22.688Z,23.35
2022-08-17T06:14:25.721Z,23.10
2022-08-17T06:17:02.598Z,24.80
2022-08-17T06:19:56.478Z,21.15
2022-08-17T06:22:27.517Z,20.83
2022-08-17T06:25:01.371Z,18.02
2022-08-17T06:27:54.295Z,25.75
2022-08-17T06:30:27.571Z,21.77
2022-08-17T06:32:59.722Z,27.95
2022-08-17T06:35:38.993Z,38.03
2022-08-17T06:38:10.495Z,23.10
2022-08-17T06:41:26.191Z,16.05
2022-08-17T06:44:47.555Z,22.60
2022-08-17T06:47:41.439Z,16.33
2022-08-17T06:50:14.657Z,17.83
2022-08-17T06:52:54.480Z,16.48
2022-08-17T06:56:02.335Z,19.27
2022-08-17T06:58:31.620Z,17.35
2022-08-17T07:01:10.050Z,14.48
2022-08-17T07:03:56.565Z,15.82
2022-08-17T07:06:37.083Z,17.10
2022-08-17T07:09:33.865Z,18.40
2022-08-17T07:12:22.304Z,12.55
2022-08-17T07:14:53.636Z,13.60
2022-08-17T07:17:22.742Z,13.25
2022-08-17T07:20:15.092Z,22.70
2022-08-17T07:23:02.096Z,13.17
2022-08-17T07:25:30.925Z,17.50
2022-08-17T07:28:04.266Z,17.30
2022-08-17T07:30:47.293Z,14.55
2022-08-17T07:33:20.407Z,24.95
2022-08-17T07:35:50.214Z,14.85
2022-08-17T07:38:24.989Z,17.42
2022-08-17T07:40:57.897Z,15.05
2022-08-17T07:43:29.656Z,11.55
2022-08-17T07:46:25.328Z,11.40
2022-08-17T07:48:56.241Z,14.98
2022-08-17T07:51:36.607Z,12.80
2022-08-17T07:54:24.785Z,20.40
2022-08-17T07:57:15.581Z,15.57
2022-08-17T08:00:16.117Z,12.95
2022-08-17T08:02:46.304Z,14.85
2022-08-17T08:05:49.343Z,16.42
2022-08-17T08:08:25.335Z,20.30
2022-08-17T08:11:12.633Z,17.75
2022-08-17T08:13:43.973Z,18.38
2022-08-17T08:16:22.836Z,14.02
2022-08-17T08:18:56.726Z,15.60
2022-08-17T08:21:42.263Z,14.27
2022-08-17T08:24:31.445Z,12.95
2022-08-17T08:27:02.649Z,11.15
2022-08-17T08:29:48.961Z,12.05
2022-08-17T08:32:25.277Z,11.48
2022-08-17T08:35:06.044Z,13.15
2022-08-17T08:38:15.328Z,12.88
2022-08-17T08:40:54.858Z,12.95
2022-08-17T08:44:00.803Z,14.15
2022-08-17T08:46:36.094Z,13.40
2022-08-17T08:49:59.492Z,13.90
2022-08-17T08:52:44.246Z,14.30
2022-08-17T08:55:28.845Z,13.45
2022-08-17T08:58:06.297Z,13.88
2022-08-17T09:00:39.143Z,15.20
2022-08-17T09:03:51.504Z,19.05
2022-08-17T09:06:44.431Z,10.77
2022-08-17T09:09:27.738Z,10.70
2022-08-17T09:12:06.958Z,10.27
2022-08-17T09:14:46.501Z,9.18
2022-08-17T09:18:14.908Z,15.38
2022-08-17T09:21:18.166Z,11.32
2022-08-17T09:23:52.121Z,19.50
2022-08-17T09:26:30.655Z,12.32
2022-08-17T09:29:02.282Z,21.38
2022-08-17T09:31:47.029Z,17.63
2022-08-17T09:34:28.192Z,14.23
2022-08-17T09:37:38.109Z,10.65
2022-08-17T09:40:34.529Z,11.07
2022-08-17T09:43:16.550Z,14.48
2022-08-17T09:45:54.559Z,11.20
2022-08-17T09:48:28.521Z,11.73
2022-08-17T09:51:18.205Z,11.85
2022-08-17T09:53:45.906Z,8.73
2022-08-17T09:56:46.220Z,10.88
2022-08-17T09:59:38.357Z,10.73
2022-08-17T10:02:38.165Z,13.00
2022-08-17T10:05:13.748Z,9.65
2022-08-17T10:07:46.766Z,11.00
2022-08-17T10:10:26.635Z,11.85
2022-08-17T10:13:06.729Z,14.48
2022-08-17T10:16:00.776Z,12.35
2022-08-17T10:18:53.197Z,11.40
2022-08-17T10:21:40.294Z,10.50
2022-08-17T10:24:36.234Z,13.75
2022-08-17T10:27:09.662Z,11.10
2022-08-17T10:29:49.213Z,11.57
2022-08-17T10:32:32.425Z,14.82
2022-08-17T10:35:34.208Z,12.45
2022-08-17T10:38:21.553Z,12.50
2022-08-17T10:40:54.891Z,10.27
2022-08-17T10:44:37.528Z,11.85
2022-08-17T10:46:59.526Z,9.57
2022-08-17T10:49:34.197Z,12.05
2022-08-17T10:52:05.275Z,12.20
2022-08-17T10:54:42.045Z,13.48
2022-08-17T10:57:31.714Z,10.40
2022-08-17T11:00:00.863Z,9.65
2022-08-17T11:02:54.183Z,27.30
2022-08-17T11:05:43.793Z,15.93
2022-08-17T11:08:17.513Z,14.00
2022-08-17T11:11:12.162Z,12.90
2022-08-17T11:13:46.172Z,10.73
2022-08-17T11:16:38.681Z,14.50
2022-08-17T11:19:31.010Z,8.27
2022-08-17T11:22:16.155Z,11.90
2022-08-17T11:24:48.070Z,9.40
2022-08-17T11:27:28.246Z,9.13
2022-08-17T11:30:01.470Z,24.98
2022-08-17T11:32:54.354Z,10.93
2022-08-17T11:35:22.377Z,11.65
2022-08-17T11:38:16.108Z,14.15
2022-08-17T11:41:02.884Z,11.15
2022-08-17T11:43:33.176Z,12.57
2022-08-17T11:46:11.176Z,14.00
2022-08-17T11:49:22.013Z,14.68
2022-08-17T11:51:55.155Z,11.15
2022-08-17T11:54:35.552Z,15.75
2022-08-17T11:57:25.655Z,12.00
2022-08-17T12:00:00.650Z,11.80
2022-08-17T12:02:35.132Z,12.63
2022-08-17T12:05:14.881Z,14.30
2022-08-17T12:07:45.433Z,11.73
2022-08-17T12:10:16.107Z,13.18
2022-08-17T12:12:45.515Z,14.18
2022-08-17T12:15:18.352Z,10.55
2022-08-17T12:17:53.854Z,13.80
2022-08-17T12:20:28.021Z,8.02
2022-08-17T12:23:05.065Z,12.70
2022-08-17T12:25:57.690Z,8.90
2022-08-17T12:28:36.800Z,14.35
2022-08-17T12:31:14.057Z,29.30
2022-08-17T12:33:46.067Z,15.27
2022-08-17T12:36:16.522Z,17.73
2022-08-17T12:38:51.696Z,10.85
2022-08-17T12:41:43.852Z,15.98
2022-08-17T12:44:21.739Z,10.88
2022-08-17T12:46:58.925Z,13.32
2022-08-17T12:49:28.302Z,12.50
2022-08-17T12:52:24.796Z,16.20
2022-08-17T12:55:02.051Z,12.30
2022-08-17T12:57:35.423Z,12.07
2022-08-17T13:00:17.872Z,14.45
2022-08-17T13:02:47.714Z,11.73
2022-08-17T13:05:39.628Z,12.57
2022-08-17T13:08:20.652Z,14.20
2022-08-17T13:11:04.229Z,13.40
2022-08-17T13:13:35.615Z,18.45
2022-08-17T13:16:19.014Z,51.13
2022-08-17T13:18:49.550Z,17.27
2022-08-17T13:21:19.707Z,13.23
2022-08-17T13:23:56.440Z,16.92
2022-08-17T13:26:42.898Z,12.40
2022-08-17T13:29:31.864Z,11.95
2022-08-17T13:32:11.617Z,14.45
2022-08-17T13:35:15.463Z,14.70
2022-08-17T13:37:37.718Z,13.55
2022-08-17T13:40:11.270Z,14.68
2022-08-17T13:42:54.213Z,11.35
2022-08-17T13:48:14.627Z,16.65
2022-08-17T13:51:01.826Z,15.90
2022-08-17T13:53:40.129Z,12.13
2022-08-17T13:56:38.056Z,20.30
2022-08-17T13:59:07.397Z,26.30
2022-08-17T14:01:42.334Z,22.08
2022-08-17T14:04:16.757Z,22.55
2022-08-17T14:06:54.151Z,21.00
2022-08-17T14:09:25.029Z,12.38
2022-08-17T14:11:54.302Z,13.93
2022-08-17T14:14:23.418Z,17.27
2022-08-17T14:16:52.237Z,23.60
2022-08-17T14:19:22.103Z,17.25
2022-08-17T14:21:49.704Z,14.02
2022-08-17T14:24:24.997Z,10.45
2022-08-17T14:26:55.703Z,10.90
2022-08-17T14:29:25.443Z,11.05
2022-08-17T14:31:54.415Z,57.83
2022-08-17T14:34:23.561Z,11.35
2022-08-17T14:36:52.129Z,11.18
2022-08-17T14:39:20.448Z,15.38
2022-08-17T14:41:47.928Z,17.25
2022-08-17T14:44:15.804Z,13.50
2022-08-17T14:46:44.678Z,13.50
2022-08-17T14:49:13.326Z,14.80
2022-08-17T14:51:44.242Z,11.48
2022-08-17T14:54:33.354Z,13.32
2022-08-17T14:57:23.341Z,11.23
2022-08-17T14:59:54.920Z,17.27
2022-08-17T15:02:29.341Z,11.00
2022-08-17T15:05:05.614Z,20.02
2022-08-17T15:07:33.177Z,32.95
2022-08-17T15:10:02.475Z,11.20
2022-08-17T15:12:33.799Z,11.88
2022-08-17T15:15:05.199Z,12.57
2022-08-17T15:17:44.644Z,14.52
2022-08-17T15:20:16.661Z,13.15
2022-08-17T15:22:45.270Z,14.75
2022-08-17T15:25:13.355Z,13.85
2022-08-17T15:27:41.476Z,14.13
2022-08-17T15:30:10.374Z,11.70
2022-08-17T15:32:41.010Z,13.55
2022-08-17T15:35:18.931Z,13.00
2022-08-17T15:37:54.393Z,11.68
2022-08-17T15:40:22.019Z,13.73
2022-08-17T15:42:49.230Z,11.18
2022-08-17T15:45:22.704Z,14.63
2022-08-17T15:47:50.701Z,13.88
2022-08-17T15:50:18.380Z,14.77
2022-08-17T15:52:47.717Z,15.48
2022-08-17T15:55:17.172Z,14.90
2022-08-17T15:57:46.195Z,12.18
2022-08-17T16:00:14.083Z,10.30
2022-08-17T16:03:46.107Z,13.82
2022-08-17T16:05:31.246Z,12.60
2022-08-17T16:07:59.977Z,13.55
2022-08-17T16:10:35.151Z,18.45
2022-08-17T16:13:04.627Z,13.55
2022-08-17T16:15:32.330Z,20.98
2022-08-17T16:17:59.809Z,16.23
2022-08-17T16:20:27.671Z,14.27
2022-08-17T16:22:55.483Z,13.27
2022-08-17T16:25:51.913Z,17.45
2022-08-17T16:28:17.964Z,14.52
2022-08-17T16:30:45.709Z,16.63
2022-08-17T16:33:13.721Z,14.63
2022-08-17T16:35:42.180Z,16.52
2022-08-17T16:38:09.785Z,17.98
2022-08-17T16:40:37.398Z,19.85
2022-08-17T16:43:10.622Z,12.55
2022-08-17T16:45:40.724Z,16.52
2022-08-17T16:48:09.533Z,17.35
2022-08-17T16:50:37.401Z,23.10
2022-08-17T16:53:08.375Z,18.95
2022-08-17T16:55:36.402Z,17.48
2022-08-17T16:58:06.979Z,16.92
2022-08-17T17:00:34.938Z,12.50
2022-08-17T17:03:19.852Z,16.55
2022-08-17T17:06:07.228Z,21.40
2022-08-17T17:09:00.616Z,17.63
2022-08-17T17:16:33.030Z,18.25
2022-08-17T17:19:34.889Z,19.35
2022-08-17T17:22:22.368Z,17.58
2022-08-17T17:25:11.270Z,16.30
2022-08-17T17:27:59.029Z,19.80
2022-08-17T17:30:27.253Z,17.88
2022-08-17T17:32:59.806Z,15.88
2022-08-17T17:35:43.707Z,24.63
2022-08-17T17:38:17.109Z,23.45
2022-08-17T17:40:47.631Z,21.75
2022-08-17T17:43:38.289Z,21.55
2022-08-17T17:46:28.406Z,29.55
2022-08-17T17:48:57.963Z,22.17
2022-08-17T17:51:54.969Z,19.38
2022-08-17T17:54:37.858Z,25.05
2022-08-17T17:57:17.932Z,21.50
2022-08-17T17:59:45.597Z,20.63
2022-08-17T18:02:12.847Z,22.00
2022-08-17T18:04:50.063Z,20.92
2022-08-17T18:07:46.661Z,21.20
2022-08-17T18:10:55.919Z,24.20
2022-08-17T18:13:33.704Z,20.98
2022-08-17T18:16:02.596Z,18.38
2022-08-17T18:18:38.344Z,21.77
2022-08-17T18:21:16.612Z,18.80
2022-08-17T18:24:04.150Z,23.92
2022-08-17T18:26:39.491Z,24.58
2022-08-17T18:29:36.838Z,17.80
2022-08-17T18:32:24.921Z,23.75
2022-08-17T18:35:11.322Z,20.75
2022-08-17T18:37:46.185Z,22.10
2022-08-17T18:40:17.086Z,22.38
2022-08-17T18:43:05.155Z,20.95
2022-08-17T18:45:43.173Z,25.00
2022-08-17T18:48:29.313Z,26.40
2022-08-17T18:51:00.362Z,21.60
2022-08-17T18:53:33.381Z,25.20
2022-08-17T18:56:20.901Z,28.58
2022-08-17T18:59:04.597Z,27.85
2022-08-17T19:01:53.277Z,28.67
2022-08-17T19:04:34.126Z,26.23
2022-08-17T19:07:23.360Z,27.73
2022-08-17T19:10:01.819Z,26.55
2022-08-17T19:12:35.347Z,20.33
2022-08-17T19:15:03.229Z,29.48
2022-08-17T19:17:37.481Z,22.38
2022-08-17T19:20:15.471Z,47.35
2022-08-17T19:22:45.979Z,26.65
2022-08-17T19:25:18.334Z,26.50
2022-08-17T19:28:00.984Z,26.88
2022-08-17T19:30:30.828Z,25.52
2022-08-17T19:32:58.711Z,26.15
2022-08-17T19:35:36.059Z,26.92
2022-08-17T19:38:12.826Z,27.52
2022-08-17T19:40:54.964Z,24.73
2022-08-17T19:43:41.395Z,27.88
2022-08-17T19:46:30.418Z,29.17
2022-08-17T19:49:41.838Z,34.97
2022-08-17T19:52:48.140Z,28.33
2022-08-17T19:55:22.384Z,29.67
2022-08-17T19:57:55.877Z,26.30
2022-08-17T20:00:23.928Z,30.85
2022-08-17T20:03:16.393Z,27.15
2022-08-17T20:06:11.544Z,31.30
2022-08-17T20:08:40.119Z,28.45
2022-08-17T20:11:17.615Z,29.17
2022-08-17T20:14:09.550Z,27.63
2022-08-17T20:16:37.199Z,30.60
2022-08-17T20:19:19.639Z,36.28
2022-08-17T20:22:01.245Z,28.63
2022-08-17T20:24:37.583Z,26.33
2022-08-17T20:27:19.120Z,29.77
2022-08-17T20:30:11.970Z,29.13
2022-08-17T20:32:56.906Z,24.55
2022-08-17T20:35:32.664Z,25.85
2022-08-17T20:38:02.317Z,37.10
2022-08-17T20:40:39.195Z,27.70
2022-08-17T20:43:33.293Z,27.38
2022-08-17T20:46:18.500Z,29.92
2022-08-17T20:48:49.072Z,26.52
2022-08-17T20:51:39.692Z,34.17
2022-08-17T20:54:27.594Z,34.47
2022-08-17T20:56:57.910Z,32.50
2022-08-17T20:59:26.036Z,28.02
2022-08-17T21:02:12.390Z,30.02
2022-08-17T21:05:00.341Z,27.75
2022-08-17T21:07:42.792Z,28.40
2022-08-17T21:10:23.777Z,31.13
2022-08-17T21:13:13.397Z,29.42
2022-08-17T21:15:44.291Z,28.63
2022-08-17T21:18:18.220Z,39.22
2022-08-17T21:21:04.780Z,32.45
2022-08-17T21:23:32.089Z,31.17
2022-08-17T21:26:26.730Z,28.85
2022-08-17T21:29:29.586Z,30.88
2022-08-17T21:32:03.463Z,30.88
2022-08-17T21:34:33.284Z,31.38
2022-08-17T21:37:23.466Z,37.30
2022-08-17T21:39:58.176Z,31.95
2022-08-17T21:42:34.160Z,29.35
2022-08-17T21:45:18.682Z,31.65
2022-08-17T21:47:52.173Z,32.97
2022-08-17T21:50:23.475Z,27.38
2022-08-17T21:53:01.189Z,34.13
2022-08-17T21:55:30.379Z,33.15
2022-08-17T21:58:14.860Z,36.90
2022-08-17T22:00:46.331Z,32.33
2022-08-17T22:03:24.233Z,32.65
2022-08-17T22:05:51.736Z,47.40
2022-08-17T22:08:22.539Z,33.63
2022-08-17T22:10:51.861Z,31.05
2022-08-17T22:13:24.335Z,32.35
2022-08-17T22:16:28.990Z,29.80
2022-08-17T22:18:58.480Z,31.65
2022-08-17T22:21:26.850Z,34.00
2022-08-17T22:24:22.710Z,32.72
2022-08-17T22:27:11.082Z,35.55
2022-08-17T22:30:00.617Z,33.85
2022-08-17T22:32:48.417Z,32.42
2022-08-17T22:35:38.641Z,36.00
2022-08-17T22:38:25.110Z,30.15
2022-08-17T22:40:55.156Z,36.30
2022-08-17T22:43:28.684Z,37.00
2022-08-17T22:45:58.626Z,29.92
2022-08-17T22:48:29.064Z,36.85
2022-08-17T22:51:13.756Z,36.10
2022-08-17T22:54:10.418Z,38.83
2022-08-17T22:56:57.138Z,34.85
2022-08-17T22:59:45.777Z,36.42
2022-08-17T23:02:19.591Z,40.47
2022-08-17T23:04:53.331Z,35.30
2022-08-17T23:07:21.623Z,39.78
2022-08-17T23:09:49.587Z,38.25
2022-08-17T23:12:22.863Z,35.60
2022-08-17T23:15:00.915Z,35.38
2022-08-17T23:17:35.098Z,34.42
2022-08-17T23:20:08.580Z,35.00
2022-08-17T23:22:38.140Z,41.28
2022-08-17T23:25:32.086Z,40.10
2022-08-17T23:28:01.663Z,33.47
2022-08-17T23:30:31.691Z,35.60
2022-08-17T23:33:01.250Z,38.70
2022-08-17T23:35:39.167Z,39.53
2022-08-17T23:38:07.628Z,33.28
2022-08-17T23:40:35.094Z,39.15
2022-08-17T23:45:47.495Z,41.95
2022-08-17T23:48:15.006Z,40.08
2022-08-17T23:50:56.506Z,42.13
2022-08-17T23:53:26.036Z,40.35
2022-08-17T23:56:09.710Z,41.38
2022-08-17T23:58:42.773Z,38.28
